Time;durP1;ratioP1;P1;durP2;ratioP2;P2;SDS_P1;SDS_P2;PMS_P1;PMS_P2;Temp;Humidity;BMP_temperature;BMP_pressure;BME280_temperature;BME280_humidity;BME280_pressure;Samples;Min_cycle;Max_cycle;Signal;HPM_P1;HPM_P2
2022/03/18 00:00:53;;;;;;;;;;;7.50;99.90;;;;;;6130868;23;19920;-90
2022/03/18 00:03:20;;;;;;;;;;;7.40;99.90;;;;;;6130738;23;19991;-90
2022/03/18 00:05:48;;;;;;;;;;;7.40;99.90;;;;;;6129851;23;19927;-88
2022/03/18 00:08:17;;;;;;;;;;;7.40;99.90;;;;;;6129070;23;19925;-90
2022/03/18 00:10:44;;;;;;;;;;;7.40;99.90;;;;;;6130012;23;19925;-91
2022/03/18 00:13:11;;;;;;;;;;;7.40;99.90;;;;;;6129881;23;19925;-91
2022/03/18 00:15:38;;;;;;;;;;;7.60;99.90;;;;;;6130125;23;19921;-90
2022/03/18 00:18:05;;;;;;;;;;;7.60;99.90;;;;;;6130236;23;19921;-92
2022/03/18 00:20:32;;;;;;;;;;;7.50;99.90;;;;;;6129512;23;19921;-91
2022/03/18 00:22:59;;;;;;;;;;;7.40;99.90;;;;;;6129199;23;19948;-91
2022/03/18 00:25:29;;;;;;;;;;;7.30;99.90;;;;;;6129574;23;19927;-91
2022/03/18 00:27:56;;;;;;;;;;;7.20;99.90;;;;;;6128774;23;19936;-90
2022/03/18 00:30:23;;;;;;;;;;;7.20;99.90;;;;;;6129397;23;19931;-91
2022/03/18 00:32:53;;;;;;;;;;;7.10;99.90;;;;;;6129874;23;19925;-91
2022/03/18 00:35:20;;;;;;;;;;;7.00;99.90;;;;;;6129882;23;20403;-90
2022/03/18 00:37:46;;;;;;;;;;;7.00;99.90;;;;;;6129803;23;19921;-90
2022/03/18 00:40:13;;;;;;;;;;;7.00;99.90;;;;;;6130570;23;20004;-90
2022/03/18 00:42:42;;;;;;;;;;;7.10;99.90;;;;;;6129477;23;19920;-92
2022/03/18 00:45:09;;;;;;;;;;;7.10;99.90;;;;;;6129714;23;19963;-91
2022/03/18 00:53:05;;;;;;;;;;;8.50;99.90;;;;;;6129734;23;20362;-91
2022/03/18 00:55:32;;;;;;;;;;;6.90;99.90;;;;;;6129585;23;19921;-90
2022/03/18 00:58:02;;;;;;;;;;;6.80;99.90;;;;;;6129553;23;19996;-90
2022/03/18 01:00:29;;;;;;;;;;;6.70;99.90;;;;;;6129545;23;19921;-91
2022/03/18 01:02:56;;;;;;;;;;;6.70;99.90;;;;;;6129903;23;19927;-91
2022/03/18 01:05:23;;;;;;;;;;;6.70;99.90;;;;;;6128882;23;19921;-91
2022/03/18 01:07:50;;;;;;;;;;;6.60;99.90;;;;;;6129438;23;19927;-91
2022/03/18 01:10:17;;;;;;;;;;;7.10;99.90;;;;;;6129521;23;19925;-91
2022/03/18 01:12:44;;;;;;;;;;;6.60;99.90;;;;;;6129348;23;19932;-92
2022/03/18 01:15:13;;;;;;;;;;;6.50;99.90;;;;;;6128894;23;19928;-91
2022/03/18 01:17:40;;;;;;;;;;;6.10;99.90;;;;;;6129426;23;19925;-90
2022/03/18 01:20:07;;;;;;;;;;;6.40;99.90;;;;;;6128845;23;19927;-91
2022/03/18 01:22:35;;;;;;;;;;;6.40;99.90;;;;;;6128994;23;19925;-92
2022/03/18 01:25:03;;;;;;;;;;;6.40;99.90;;;;;;6128541;23;19921;-90
2022/03/18 01:27:30;;;;;;;;;;;6.40;99.90;;;;;;6128833;23;19928;-91
2022/03/18 01:29:57;;;;;;;;;;;6.40;99.90;;;;;;6128825;23;19956;-92
2022/03/18 01:32:25;;;;;;;;;;;6.40;99.90;;;;;;6129141;23;19963;-90
2022/03/18 01:34:53;;;;;;;;;;;6.30;99.90;;;;;;6129207;23;19921;-90
2022/03/18 01:37:20;;;;;;;;;;;6.30;99.90;;;;;;6128766;23;19948;-90
2022/03/18 01:39:47;;;;;;;;;;;6.20;99.90;;;;;;6128543;23;19928;-90
2022/03/18 01:42:14;;;;;;;;;;;6.20;99.90;;;;;;6129208;23;20297;-90
2022/03/18 01:44:42;;;;;;;;;;;6.20;99.90;;;;;;6128663;23;19921;-91
2022/03/18 01:47:09;;;;;;;;;;;6.20;99.90;;;;;;6132013;23;19921;-89
2022/03/18 01:49:37;;;;;;;;;;;6.20;99.90;;;;;;6136451;23;19968;-88
2022/03/18 01:52:05;;;;;;;;;;;6.20;99.90;;;;;;6135461;23;19925;-91
2022/03/18 01:54:51;;;;;;;;;;;6.10;99.90;;;;;;6129640;23;19925;-92
2022/03/18 01:57:19;;;;;;;;;;;6.10;99.90;;;;;;6129677;23;20293;-91
2022/03/18 01:59:46;;;;;;;;;;;6.10;99.90;;;;;;6129162;23;19927;-92
2022/03/18 02:02:13;;;;;;;;;;;6.10;99.90;;;;;;6103030;23;19928;-90
2022/03/18 02:04:44;;;;;;;;;;;6.00;99.90;;;;;;6127936;23;19924;-92
2022/03/18 02:07:13;;;;;;;;;;;6.00;99.90;;;;;;6128319;23;19925;-91
2022/03/18 02:09:40;;;;;;;;;;;6.00;99.90;;;;;;6128557;23;19925;-91
2022/03/18 02:12:09;;;;;;;;;;;6.00;99.90;;;;;;6128526;23;19921;-91
2022/03/18 02:14:37;;;;;;;;;;;6.10;99.90;;;;;;6128687;23;19952;-91
2022/03/18 02:17:05;;;;;;;;;;;6.10;99.90;;;;;;6128678;23;20000;-91
2022/03/18 02:19:32;;;;;;;;;;;6.10;99.90;;;;;;6128266;23;19921;-91
2022/03/18 02:22:01;;;;;;;;;;;6.00;99.90;;;;;;6127955;23;19988;-91
2022/03/18 02:24:29;;;;;;;;;;;5.90;99.90;;;;;;6128388;23;19921;-89
2022/03/18 02:26:56;;;;;;;;;;;5.80;99.90;;;;;;6127869;23;19928;-92
2022/03/18 02:29:24;;;;;;;;;;;5.80;99.90;;;;;;6128411;23;19999;-91
2022/03/18 02:31:51;;;;;;;;;;;5.80;99.90;;;;;;6128705;23;19921;-91
2022/03/18 02:34:19;;;;;;;;;;;5.70;99.90;;;;;;6127817;23;20364;-91
2022/03/18 02:36:46;;;;;;;;;;;5.70;99.90;;;;;;6128086;23;19928;-91
2022/03/18 02:39:12;;;;;;;;;;;5.70;99.90;;;;;;6128216;23;19928;-91
2022/03/18 02:41:41;;;;;;;;;;;5.70;99.90;;;;;;6128510;23;19925;-90
2022/03/18 02:44:08;;;;;;;;;;;5.70;99.90;;;;;;6127643;23;19927;-91
2022/03/18 02:46:35;;;;;;;;;;;5.70;99.90;;;;;;6127956;23;19928;-91
2022/03/18 02:49:02;;;;;;;;;;;5.70;99.90;;;;;;6128357;23;19991;-91
2022/03/18 02:51:30;;;;;;;;;;;5.70;99.90;;;;;;6128556;23;19921;-92
2022/03/18 02:53:57;;;;;;;;;;;5.70;99.90;;;;;;6128749;23;20337;-91
2022/03/18 02:56:24;;;;;;;;;;;5.60;99.90;;;;;;6128602;23;19925;-92
2022/03/18 02:58:53;;;;;;;;;;;5.60;99.90;;;;;;6127653;23;19921;-91
2022/03/18 03:01:21;;;;;;;;;;;5.60;99.90;;;;;;6128277;23;19992;-90
2022/03/18 03:03:48;;;;;;;;;;;5.70;99.90;;;;;;6127947;23;19928;-90
2022/03/18 03:08:59;;;;;;;;;;;5.60;99.90;;;;;;6128010;23;20466;-91
2022/03/18 03:11:26;;;;;;;;;;;5.60;99.90;;;;;;6127629;23;20399;-91
2022/03/18 03:13:54;;;;;;;;;;;5.50;99.90;;;;;;6128611;23;19928;-90
2022/03/18 03:16:21;;;;;;;;;;;5.50;99.90;;;;;;6127997;23;19921;-91
2022/03/18 03:18:50;;;;;;;;;;;6.10;99.90;;;;;;6127849;23;19921;-91
2022/03/18 03:21:20;;;;;;;;;;;5.50;99.90;;;;;;6127939;23;19921;-91
2022/03/18 03:23:47;;;;;;;;;;;5.50;99.90;;;;;;6127990;23;19925;-91
2022/03/18 03:26:14;;;;;;;;;;;5.50;99.90;;;;;;6128297;23;20244;-92
2022/03/18 03:28:42;;;;;;;;;;;5.50;99.90;;;;;;6128187;23;19948;-91
2022/03/18 03:31:11;;;;;;;;;;;5.50;99.90;;;;;;6130160;23;20356;-92
2022/03/18 03:33:38;;;;;;;;;;;5.50;99.90;;;;;;6130038;23;19983;-91
2022/03/18 03:36:05;;;;;;;;;;;5.50;99.90;;;;;;6130086;23;20010;-90
2022/03/18 03:38:32;;;;;;;;;;;5.50;99.90;;;;;;6129789;23;19920;-90
2022/03/18 03:40:59;;;;;;;;;;;5.40;99.90;;;;;;6129680;23;20003;-92
2022/03/18 03:43:26;;;;;;;;;;;5.30;99.90;;;;;;6129724;23;19968;-91
2022/03/18 03:45:53;;;;;;;;;;;5.20;99.90;;;;;;6129879;23;19921;-91
2022/03/18 03:48:23;;;;;;;;;;;5.20;99.90;;;;;;6129864;23;19920;-91
2022/03/18 03:50:50;;;;;;;;;;;5.30;99.90;;;;;;6129986;23;19964;-91
2022/03/18 03:53:17;;;;;;;;;;;5.20;99.90;;;;;;6128707;23;19925;-92
2022/03/18 03:55:44;;;;;;;;;;;5.10;99.90;;;;;;6129857;23;19921;-91
2022/03/18 03:58:11;;;;;;;;;;;5.10;99.90;;;;;;6130064;23;19996;-91
2022/03/18 04:00:38;;;;;;;;;;;5.00;99.90;;;;;;6129384;23;19921;-92
2022/03/18 04:03:06;;;;;;;;;;;4.90;99.90;;;;;;6130140;23;19932;-91
2022/03/18 04:05:34;;;;;;;;;;;4.90;99.90;;;;;;6129670;23;19920;-91
2022/03/18 04:08:02;;;;;;;;;;;4.90;99.90;;;;;;6129870;23;19963;-92
2022/03/18 04:10:29;;;;;;;;;;;4.90;99.90;;;;;;6129683;23;19921;-90
2022/03/18 04:12:56;;;;;;;;;;;4.90;99.90;;;;;;6129775;23;19925;-90
2022/03/18 04:15:23;;;;;;;;;;;4.90;99.90;;;;;;6129871;23;19920;-92
2022/03/18 04:17:50;;;;;;;;;;;4.90;99.90;;;;;;6129681;23;19925;-89
2022/03/18 04:20:20;;;;;;;;;;;5.00;99.90;;;;;;6129933;23;19921;-90
2022/03/18 04:22:48;;;;;;;;;;;5.10;99.90;;;;;;6128675;23;19927;-91
2022/03/18 04:25:15;;;;;;;;;;;5.20;99.90;;;;;;6129142;23;19925;-93
2022/03/18 04:27:42;;;;;;;;;;;5.20;99.90;;;;;;6129007;23;19921;-91
2022/03/18 04:30:11;;;;;;;;;;;5.30;99.90;;;;;;6129549;23;19925;-88
2022/03/18 04:32:37;;;;;;;;;;;5.30;99.90;;;;;;6129429;23;19921;-89
2022/03/18 04:35:05;;;;;;;;;;;5.40;99.90;;;;;;6129224;23;19921;-90
2022/03/18 04:37:34;;;;;;;;;;;5.50;99.90;;;;;;6128714;23;19992;-90
2022/03/18 04:40:04;;;;;;;;;;;5.60;99.90;;;;;;6128706;23;19932;-91
2022/03/18 04:42:31;;;;;;;;;;;5.50;99.90;;;;;;6128287;23;19928;-90
2022/03/18 04:44:58;;;;;;;;;;;5.50;99.90;;;;;;6129399;23;19968;-91
2022/03/18 04:47:25;;;;;;;;;;;5.50;99.90;;;;;;6128726;23;20296;-91
2022/03/18 04:49:52;;;;;;;;;;;5.40;99.90;;;;;;6128664;23;19927;-92
2022/03/18 04:52:19;;;;;;;;;;;5.40;99.90;;;;;;6129361;23;19921;-92
2022/03/18 04:54:46;;;;;;;;;;;5.40;99.90;;;;;;6128977;23;19988;-91
2022/03/18 04:57:17;;;;;;;;;;;5.40;99.90;;;;;;6128210;23;19992;-91
2022/03/18 04:59:52;;;;;;;;;;;5.40;99.90;;;;;;6127993;23;19920;-92
2022/03/18 05:02:20;;;;;;;;;;;5.30;99.90;;;;;;6128115;23;20277;-91
2022/03/18 05:04:50;;;;;;;;;;;5.20;99.90;;;;;;6128364;23;19921;-91
2022/03/18 05:07:17;;;;;;;;;;;5.20;99.90;;;;;;6127824;23;19968;-92
2022/03/18 05:09:46;;;;;;;;;;;5.10;99.90;;;;;;6128775;23;19999;-91
2022/03/18 05:12:16;;;;;;;;;;;5.00;99.90;;;;;;6128900;23;19921;-92
2022/03/18 05:14:43;;;;;;;;;;;5.10;99.90;;;;;;6128826;23;19988;-92
2022/03/18 05:17:11;;;;;;;;;;;5.00;99.90;;;;;;6128175;23;19924;-90
2022/03/18 05:19:40;;;;;;;;;;;5.10;99.90;;;;;;6128297;23;20356;-90
2022/03/18 05:22:07;;;;;;;;;;;5.20;99.90;;;;;;6128496;23;19921;-92
2022/03/18 05:24:34;;;;;;;;;;;5.10;99.90;;;;;;6128836;23;19921;-91
2022/03/18 05:27:02;;;;;;;;;;;4.90;99.90;;;;;;6131754;23;19921;-90
2022/03/18 05:29:30;;;;;;;;;;;4.80;99.90;;;;;;6135740;23;19971;-89
2022/03/18 05:31:58;;;;;;;;;;;4.70;99.90;;;;;;6133668;23;20342;-90
2022/03/18 05:34:25;;;;;;;;;;;4.80;99.90;;;;;;6128866;23;19920;-90
2022/03/18 05:36:52;;;;;;;;;;;4.80;99.90;;;;;;6128844;23;19925;-91
2022/03/18 05:39:21;;;;;;;;;;;4.70;99.90;;;;;;6128107;23;19928;-91
2022/03/18 05:41:48;;;;;;;;;;;4.70;99.90;;;;;;6128543;23;19925;-91
2022/03/18 05:44:17;;;;;;;;;;;4.70;99.90;;;;;;6127454;23;20149;-90
2022/03/18 05:46:45;;;;;;;;;;;4.60;99.90;;;;;;6127897;23;19928;-90
2022/03/18 05:49:12;;;;;;;;;;;4.50;99.90;;;;;;6128267;23;20336;-90
2022/03/18 05:51:41;;;;;;;;;;;4.50;99.90;;;;;;6128359;23;19920;-91
2022/03/18 05:54:08;;;;;;;;;;;4.40;99.90;;;;;;6128153;23;19920;-91
2022/03/18 05:56:55;;;;;;;;;;;4.40;99.90;;;;;;6128269;23;20078;-91
2022/03/18 05:59:22;;;;;;;;;;;4.30;99.90;;;;;;6127970;23;19953;-91
2022/03/18 06:01:54;;;;;;;;;;;4.30;99.90;;;;;;6127942;23;19928;-91
2022/03/18 06:04:22;;;;;;;;;;;4.30;99.90;;;;;;6128660;23;19928;-92
2022/03/18 06:06:48;;;;;;;;;;;4.40;99.90;;;;;;6128261;23;19921;-90
2022/03/18 06:12:00;;;;;;;;;;;4.30;99.90;;;;;;6127401;23;19927;-91
2022/03/18 06:14:28;;;;;;;;;;;4.40;99.90;;;;;;6127798;23;19955;-91
2022/03/18 06:16:59;;;;;;;;;;;4.40;99.90;;;;;;6127657;23;19997;-91
2022/03/18 06:19:27;;;;;;;;;;;4.40;99.90;;;;;;6128743;23;19931;-90
2022/03/18 06:21:54;;;;;;;;;;;4.40;99.90;;;;;;6127652;23;20325;-91
2022/03/18 06:24:22;;;;;;;;;;;4.40;99.90;;;;;;6128267;23;19928;-92
2022/03/18 06:26:49;;;;;;;;;;;4.40;99.90;;;;;;6128099;23;20347;-92
2022/03/18 06:29:16;;;;;;;;;;;4.50;99.90;;;;;;6127155;23;19948;-92
2022/03/18 06:31:43;;;;;;;;;;;4.50;99.90;;;;;;6128025;23;19996;-91
2022/03/18 06:34:12;;;;;;;;;;;4.50;99.90;;;;;;6128094;23;19924;-90
2022/03/18 06:36:39;;;;;;;;;;;4.60;99.90;;;;;;6127562;23;20345;-92
2022/03/18 06:39:07;;;;;;;;;;;4.60;99.90;;;;;;6128319;23;19925;-92
2022/03/18 06:41:34;;;;;;;;;;;4.70;99.90;;;;;;6127859;23;19921;-92
2022/03/18 06:44:02;;;;;;;;;;;4.70;99.90;;;;;;6128047;23;19925;-92
2022/03/18 06:46:29;;;;;;;;;;;4.80;99.90;;;;;;6127769;23;19956;-92
2022/03/18 06:48:56;;;;;;;;;;;4.80;99.90;;;;;;6127423;23;20308;-92
2022/03/18 06:51:24;;;;;;;;;;;4.80;99.90;;;;;;6127466;23;19927;-92
2022/03/18 06:53:51;;;;;;;;;;;4.80;99.90;;;;;;6127301;23;19968;-92
2022/03/18 06:56:18;;;;;;;;;;;4.80;99.90;;;;;;6127584;23;19928;-92
2022/03/18 06:58:45;;;;;;;;;;;4.80;99.90;;;;;;6127454;23;19921;-91
2022/03/18 07:01:13;;;;;;;;;;;4.80;99.90;;;;;;6127557;23;19928;-92
2022/03/18 07:03:40;;;;;;;;;;;4.80;99.90;;;;;;6127443;23;19975;-90
2022/03/18 07:06:10;;;;;;;;;;;4.80;99.90;;;;;;6129503;23;19927;-92
2022/03/18 07:08:41;;;;;;;;;;;4.80;99.90;;;;;;6129547;23;19924;-91
2022/03/18 07:11:13;;;;;;;;;;;4.80;99.90;;;;;;6131561;23;19940;-91
2022/03/18 07:13:40;;;;;;;;;;;5.00;99.90;;;;;;6130058;23;19921;-92
2022/03/18 07:18:56;;;;;;;;;;;5.10;99.90;;;;;;6130201;23;19976;-91
2022/03/18 07:21:23;;;;;;;;;;;5.10;99.90;;;;;;6130299;23;19928;-91
2022/03/18 07:23:51;;;;;;;;;;;5.10;99.90;;;;;;6130062;23;19921;-91
2022/03/18 07:26:18;;;;;;;;;;;5.20;99.90;;;;;;6129415;23;19921;-93
2022/03/18 07:28:45;;;;;;;;;;;5.30;99.90;;;;;;6129697;23;19936;-90
2022/03/18 07:31:12;;;;;;;;;;;5.40;99.90;;;;;;6132128;23;19972;-92
2022/03/18 07:33:39;;;;;;;;;;;5.50;99.90;;;;;;6131445;23;19943;-90
2022/03/18 07:36:06;;;;;;;;;;;5.60;99.90;;;;;;6131145;23;19921;-90
2022/03/18 07:38:36;;;;;;;;;;;5.70;99.90;;;;;;6131250;23;19928;-92
2022/03/18 07:41:06;;;;;;;;;;;5.70;99.90;;;;;;6134682;23;19921;-89
2022/03/18 07:43:32;;;;;;;;;;;6.30;99.90;;;;;;6134538;23;19992;-90
2022/03/18 07:45:59;;;;;;;;;;;5.90;99.90;;;;;;6136847;23;19927;-91
2022/03/18 07:48:28;;;;;;;;;;;5.90;99.90;;;;;;6132711;23;19928;-92
2022/03/18 07:50:56;;;;;;;;;;;6.10;99.90;;;;;;6133446;23;19921;-90
2022/03/18 07:53:23;;;;;;;;;;;6.20;99.90;;;;;;6133952;23;20309;-89
2022/03/18 07:55:50;;;;;;;;;;;6.20;99.90;;;;;;6133701;23;19921;-92
2022/03/18 07:58:19;;;;;;;;;;;6.20;99.90;;;;;;6134677;23;19949;-92
2022/03/18 08:00:46;;;;;;;;;;;6.30;99.90;;;;;;6136106;23;19978;-90
2022/03/18 08:03:26;;;;;;;;;;;6.40;99.90;;;;;;6136031;23;19921;-92
2022/03/18 08:05:53;;;;;;;;;;;6.40;99.90;;;;;;6133260;23;19920;-92
2022/03/18 08:08:22;;;;;;;;;;;6.50;99.90;;;;;;6133078;23;20366;-90
2022/03/18 08:10:50;;;;;;;;;;;6.60;99.90;;;;;;6135744;23;19937;-89
2022/03/18 08:13:21;;;;;;;;;;;6.60;99.90;;;;;;6135919;23;20248;-90
2022/03/18 08:15:49;;;;;;;;;;;6.80;99.90;;;;;;6134435;23;19932;-89
2022/03/18 08:18:17;;;;;;;;;;;7.00;99.90;;;;;;6134808;23;19921;-93
2022/03/18 08:20:44;;;;;;;;;;;7.20;99.90;;;;;;6135584;23;19928;-91
2022/03/18 08:23:12;;;;;;;;;;;7.30;99.90;;;;;;6135113;23;19925;-89
2022/03/18 08:25:39;;;;;;;;;;;7.30;99.90;;;;;;6134758;23;19927;-91
2022/03/18 08:28:10;;;;;;;;;;;6.30;99.90;;;;;;6135029;23;20000;-88
2022/03/18 08:30:43;;;;;;;;;;;7.40;99.90;;;;;;6133989;23;19927;-91
2022/03/18 08:33:10;;;;;;;;;;;7.40;99.90;;;;;;6134166;23;19921;-90
2022/03/18 08:35:41;;;;;;;;;;;7.60;99.90;;;;;;6134718;23;19921;-89
2022/03/18 08:38:10;;;;;;;;;;;7.60;99.90;;;;;;6135161;23;20000;-91
2022/03/18 08:40:40;;;;;;;;;;;7.80;99.90;;;;;;6134580;23;19948;-91
2022/03/18 08:43:09;;;;;;;;;;;7.90;99.90;;;;;;6133971;23;20242;-91
2022/03/18 08:45:43;;;;;;;;;;;7.90;99.90;;;;;;6136249;23;19964;-91
2022/03/18 08:48:12;;;;;;;;;;;8.00;99.90;;;;;;6135731;23;19925;-91
2022/03/18 08:50:48;;;;;;;;;;;8.00;99.90;;;;;;6134008;23;19921;-92
2022/03/18 08:53:16;;;;;;;;;;;8.10;99.90;;;;;;6130811;23;19925;-88
2022/03/18 08:55:43;;;;;;;;;;;8.30;99.90;;;;;;6136058;23;19998;-86
2022/03/18 08:58:13;;;;;;;;;;;8.40;99.90;;;;;;6131451;23;19945;-90
2022/03/18 09:00:44;;;;;;;;;;;8.40;99.90;;;;;;6128781;23;19921;-90
2022/03/18 09:03:14;;;;;;;;;;;8.60;99.90;;;;;;6132064;23;19925;-88
2022/03/18 09:05:43;;;;;;;;;;;8.60;99.90;;;;;;6130698;23;19921;-90
2022/03/18 09:10:53;;;;;;;;;;;8.90;99.90;;;;;;6128040;23;19993;-87
2022/03/18 09:13:20;;;;;;;;;;;9.10;99.90;;;;;;6128520;23;19921;-84
2022/03/18 09:15:47;;;;;;;;;;;9.50;99.90;;;;;;6127792;23;19943;-83
2022/03/18 09:18:18;;;;;;;;;;;9.70;99.90;;;;;;6129082;23;19921;-84
2022/03/18 09:20:45;;;;;;;;;;;10.30;99.90;;;;;;6126858;23;19944;-86
2022/03/18 09:23:14;;;;;;;;;;;10.60;99.90;;;;;;6126974;23;19925;-87
2022/03/18 09:25:41;;;;;;;;;;;10.40;99.90;;;;;;6126922;23;20336;-87
2022/03/18 09:28:07;;;;;;;;;;;10.80;99.90;;;;;;6128472;23;19928;-89
2022/03/18 09:30:34;;;;;;;;;;;10.60;99.90;;;;;;6129266;23;19921;-88
2022/03/18 09:33:03;;;;;;;;;;;10.60;99.90;;;;;;6127665;23;20004;-89
2022/03/18 09:35:31;;;;;;;;;;;10.40;99.90;;;;;;6125564;23;19928;-89
2022/03/18 09:37:58;;;;;;;;;;;10.80;99.90;;;;;;6128467;23;19925;-88
2022/03/18 09:40:25;;;;;;;;;;;11.10;99.90;;;;;;6128149;23;19920;-89
2022/03/18 09:42:56;;;;;;;;;;;11.10;99.90;;;;;;6127126;23;20015;-88
2022/03/18 09:45:24;;;;;;;;;;;11.90;99.90;;;;;;6127009;23;19928;-89
2022/03/18 09:47:52;;;;;;;;;;;11.00;99.90;;;;;;6128750;23;19929;-90
2022/03/18 09:50:19;;;;;;;;;;;11.90;99.90;;;;;;6126402;23;20241;-90
2022/03/18 09:52:48;;;;;;;;;;;10.90;99.90;;;;;;6127609;23;19921;-88
2022/03/18 09:55:17;;;;;;;;;;;11.00;99.90;;;;;;6125880;23;19920;-89
2022/03/18 09:57:44;;;;;;;;;;;11.20;99.90;;;;;;6126810;23;19991;-89
2022/03/18 10:00:14;;;;;;;;;;;11.40;99.90;;;;;;6127194;23;19929;-89
2022/03/18 10:02:42;;;;;;;;;;;11.50;99.90;;;;;;6127573;23;19921;-88
2022/03/18 10:05:11;;;;;;;;;;;11.60;99.90;;;;;;6127429;23;20257;-89
2022/03/18 10:07:38;;;;;;;;;;;11.80;99.90;;;;;;6126672;23;19925;-89
2022/03/18 10:10:10;;;;;;;;;;;12.40;99.90;;;;;;6127044;23;19932;-89
2022/03/18 10:12:39;;;;;;;;;;;12.80;99.90;;;;;;6129304;23;20345;-89
2022/03/18 10:15:10;;;;;;;;;;;12.80;99.90;;;;;;6127343;23;19921;-88
2022/03/18 10:17:44;;;;;;;;;;;10.50;99.90;;;;;;6127256;23;19968;-88
2022/03/18 10:20:29;;;;;;;;;;;12.90;99.90;;;;;;6127301;23;20003;-88
2022/03/18 10:23:02;;;;;;;;;;;12.70;99.90;;;;;;6126002;23;19929;-87
2022/03/18 10:25:39;;;;;;;;;;;12.80;99.90;;;;;;6126203;23;19962;-85
2022/03/18 10:28:06;;;;;;;;;;;13.80;99.90;;;;;;6127839;23;19925;-85
2022/03/18 10:30:33;;;;;;;;;;;13.00;99.90;;;;;;6127572;23;19992;-88
2022/03/18 10:33:00;;;;;;;;;;;12.60;99.90;;;;;;6126653;23;19921;-88
2022/03/18 10:38:26;;;;;;;;;;;13.10;99.90;;;;;;6127034;23;20264;-88
2022/03/18 10:40:55;;;;;;;;;;;12.80;99.90;;;;;;6126637;23;19925;-88
2022/03/18 10:43:22;;;;;;;;;;;12.80;99.90;;;;;;6127152;23;19921;-88
2022/03/18 10:46:02;;;;;;;;;;;12.80;99.90;;;;;;6126808;23;19948;-88
2022/03/18 10:48:29;;;;;;;;;;;12.80;99.90;;;;;;6127178;23;20260;-88
2022/03/18 10:51:06;;;;;;;;;;;12.90;99.90;;;;;;6126946;23;19925;-88
2022/03/18 10:53:37;;;;;;;;;;;13.00;99.90;;;;;;6126070;23;19928;-88
2022/03/18 10:56:07;;;;;;;;;;;13.20;99.90;;;;;;6127049;23;19921;-88
2022/03/18 10:58:34;;;;;;;;;;;13.20;99.90;;;;;;6084400;23;19968;-87
2022/03/18 11:01:05;;;;;;;;;;;13.30;99.90;;;;;;6126109;23;19921;-89
2022/03/18 11:03:32;;;;;;;;;;;13.40;99.90;;;;;;6126256;23;20003;-87
2022/03/18 11:06:02;;;;;;;;;;;14.20;99.90;;;;;;6125977;23;20260;-88
2022/03/18 11:08:35;;;;;;;;;;;13.40;99.90;;;;;;6126394;23;19952;-86
2022/03/18 11:11:18;;;;;;;;;;;16.50;99.90;;;;;;6127376;23;19924;-89
2022/03/18 11:13:50;;;;;;;;;;;14.90;99.90;;;;;;6126350;23;19996;-88
2022/03/18 11:16:18;;;;;;;;;;;14.10;99.90;;;;;;6134258;23;19951;-85
2022/03/18 11:18:45;;;;;;;;;;;14.10;99.90;;;;;;6129931;23;20336;-88
2022/03/18 11:21:13;;;;;;;;;;;14.20;99.90;;;;;;6126810;23;19929;-87
2022/03/18 11:23:41;;;;;;;;;;;14.30;99.90;;;;;;6126760;23;20396;-88
2022/03/18 11:26:08;;;;;;;;;;;14.40;99.90;;;;;;6128500;23;19928;-86
2022/03/18 11:28:35;;;;;;;;;;;15.10;99.90;;;;;;6128521;23;19921;-87
2022/03/18 11:31:04;;;;;;;;;;;14.60;99.90;;;;;;6127296;23;19924;-87
2022/03/18 11:33:35;;;;;;;;;;;15.00;99.90;;;;;;6127357;23;20264;-86
2022/03/18 11:36:09;;;;;;;;;;;14.40;99.90;;;;;;6126508;23;19928;-87
2022/03/18 11:38:51;;;;;;;;;;;15.00;99.90;;;;;;6128442;23;19933;-86
2022/03/18 11:41:19;;;;;;;;;;;15.00;99.90;;;;;;6126592;23;19925;-87
2022/03/18 11:43:52;;;;;;;;;;;14.70;99.90;;;;;;6127198;23;19971;-88
2022/03/18 11:46:23;;;;;;;;;;;13.90;99.90;;;;;;6129637;23;19932;-88
2022/03/18 11:48:50;;;;;;;;;;;15.90;99.90;;;;;;6127901;23;19921;-86
2022/03/18 11:51:24;;;;;;;;;;;14.80;99.90;;;;;;6130097;23;19921;-88
2022/03/18 11:53:53;;;;;;;;;;;15.00;99.90;;;;;;6128612;23;19992;-88
2022/03/18 11:56:22;;;;;;;;;;;16.20;99.90;;;;;;6128534;23;20257;-88
2022/03/18 11:58:49;;;;;;;;;;;15.00;99.90;;;;;;6130273;23;19921;-86
2022/03/18 12:01:34;;;;;;;;;;;14.80;99.90;;;;;;6128783;23;19953;-88
2022/03/18 12:04:07;;;;;;;;;;;15.00;99.90;;;;;;6128268;23;19921;-88
2022/03/18 12:06:34;;;;;;;;;;;15.00;99.90;;;;;;6127477;23;19928;-86
2022/03/18 12:09:02;;;;;;;;;;;13.90;99.90;;;;;;6128785;23;20313;-88
2022/03/18 12:11:29;;;;;;;;;;;14.90;99.90;;;;;;6127562;23;20257;-86
2022/03/18 12:13:57;;;;;;;;;;;15.30;99.90;;;;;;6127915;23;19932;-87
2022/03/18 12:16:24;;;;;;;;;;;14.60;99.90;;;;;;6128846;23;19945;-88
2022/03/18 12:19:02;;;;;;;;;;;15.10;99.90;;;;;;6127605;23;19921;-88
2022/03/18 12:21:35;;;;;;;;;;;15.30;99.90;;;;;;6127145;23;19948;-86
2022/03/18 12:24:03;;;;;;;;;;;15.40;99.90;;;;;;6127969;23;19921;-88
2022/03/18 12:26:33;;;;;;;;;;;15.30;99.90;;;;;;6128475;23;19920;-87
2022/03/18 12:28:59;;;;;;;;;;;15.40;99.90;;;;;;6127813;23;19921;-86
2022/03/18 12:31:29;;;;;;;;;;;15.40;99.90;;;;;;6129398;23;19927;-85
2022/03/18 12:33:57;;;;;;;;;;;15.30;99.90;;;;;;6129128;23;19921;-89
2022/03/18 12:36:24;;;;;;;;;;;15.20;99.90;;;;;;6130361;23;20355;-88
2022/03/18 12:39:04;;;;;;;;;;;15.30;99.90;;;;;;6129307;23;20379;-88
2022/03/18 12:41:31;;;;;;;;;;;15.20;99.90;;;;;;6129074;23;19931;-86
2022/03/18 12:43:58;;;;;;;;;;;15.20;99.90;;;;;;6131724;23;19984;-86
2022/03/18 12:46:25;;;;;;;;;;;15.20;99.90;;;;;;6135950;23;20337;-87
2022/03/18 12:48:53;;;;;;;;;;;15.20;99.90;;;;;;6134057;23;20016;-86
2022/03/18 12:51:23;;;;;;;;;;;15.30;99.90;;;;;;6130756;23;19927;-89
2022/03/18 12:53:50;;;;;;;;;;;15.40;99.90;;;;;;6131561;23;19921;-89
2022/03/18 12:56:22;;;;;;;;;;;15.40;99.90;;;;;;6132090;23;19921;-89
2022/03/18 12:58:49;;;;;;;;;;;15.30;99.90;;;;;;6133738;23;19925;-87
2022/03/18 13:01:16;;;;;;;;;;;15.50;99.90;;;;;;6130276;23;19925;-87
2022/03/18 13:03:47;;;;;;;;;;;15.70;99.90;;;;;;6130764;23;19921;-88
2022/03/18 13:06:18;;;;;;;;;;;15.70;99.90;;;;;;6133487;23;19921;-86
2022/03/18 13:08:47;;;;;;;;;;;15.50;99.90;;;;;;6132663;23;19921;-86
2022/03/18 13:11:14;;;;;;;;;;;15.70;99.90;;;;;;6130321;23;19928;-85
2022/03/18 13:16:36;;;;;;;;;;;15.80;99.90;;;;;;6132119;23;19921;-85
2022/03/18 13:19:03;;;;;;;;;;;16.00;99.90;;;;;;6132688;23;19920;-89
2022/03/18 13:21:39;;;;;;;;;;;16.00;99.90;;;;;;6132854;23;19921;-85
2022/03/18 13:24:06;;;;;;;;;;;15.80;99.90;;;;;;6132739;23;19968;-89
2022/03/18 13:26:33;;;;;;;;;;;16.00;99.90;;;;;;6135139;23;19925;-87
2022/03/18 13:29:01;;;;;;;;;;;15.10;99.90;;;;;;6133880;23;19929;-89
2022/03/18 13:34:13;;;;;;;;;;;15.80;99.90;;;;;;6132229;23;20418;-88
2022/03/18 13:36:40;;;;;;;;;;;15.90;99.90;;;;;;6107376;23;19921;-88
2022/03/18 13:39:08;;;;;;;;;;;16.00;99.90;;;;;;6131019;23;20305;-84
2022/03/18 13:41:48;;;;;;;;;;;16.00;99.90;;;;;;6133135;23;19921;-86
2022/03/18 13:44:17;;;;;;;;;;;15.30;99.90;;;;;;6135708;23;19920;-88
2022/03/18 13:46:56;;;;;;;;;;;16.00;99.90;;;;;;6130739;23;19921;-89
2022/03/18 13:49:23;;;;;;;;;;;16.10;99.90;;;;;;6132844;23;19944;-88
2022/03/18 13:51:52;;;;;;;;;;;14.60;99.90;;;;;;6132324;23;19969;-88
2022/03/18 13:54:21;;;;;;;;;;;15.50;99.90;;;;;;6133998;23;19953;-88
2022/03/18 13:56:57;;;;;;;;;;;16.10;99.90;;;;;;6134708;23;19928;-87
2022/03/18 13:59:26;;;;;;;;;;;16.20;99.90;;;;;;6131465;23;19932;-89
2022/03/18 14:01:56;;;;;;;;;;;16.40;99.90;;;;;;6131737;23;19965;-86
2022/03/18 14:04:24;;;;;;;;;;;16.50;99.80;;;;;;6134308;23;20352;-86
2022/03/18 14:06:55;;;;;;;;;;;16.50;99.70;;;;;;6135731;23;19965;-87
2022/03/18 14:09:22;;;;;;;;;;;17.30;99.90;;;;;;6130648;23;19921;-88
2022/03/18 14:14:36;;;;;;;;;;;16.30;99.90;;;;;;6136231;23;19995;-87
2022/03/18 14:17:10;;;;;;;;;;;16.40;99.90;;;;;;6134499;23;19921;-90
2022/03/18 14:19:50;;;;;;;;;;;17.70;99.60;;;;;;6135933;23;19927;-86
2022/03/18 14:22:34;;;;;;;;;;;16.60;98.80;;;;;;6133978;23;19920;-88
2022/03/18 14:25:02;;;;;;;;;;;16.70;99.10;;;;;;6131328;23;19925;-88
2022/03/18 14:27:29;;;;;;;;;;;16.70;99.90;;;;;;6128332;23;19976;-84
2022/03/18 14:29:57;;;;;;;;;;;16.80;99.70;;;;;;6125711;23;20254;-86
2022/03/18 14:32:28;;;;;;;;;;;16.70;99.10;;;;;;6133109;23;19928;-88
2022/03/18 14:34:56;;;;;;;;;;;16.80;98.60;;;;;;6132635;23;19976;-88
2022/03/18 14:37:30;;;;;;;;;;;16.70;98.10;;;;;;6115041;23;19928;-88
2022/03/18 14:39:57;;;;;;;;;;;16.60;98.00;;;;;;6130220;23;19995;-88
2022/03/18 14:42:26;;;;;;;;;;;16.70;99.30;;;;;;6132942;23;19921;-89
2022/03/18 14:44:53;;;;;;;;;;;14.40;96.80;;;;;;6130119;23;19925;-87
2022/03/18 14:47:21;;;;;;;;;;;16.50;98.00;;;;;;6135097;23;19929;-85
2022/03/18 14:49:50;;;;;;;;;;;15.60;97.80;;;;;;6130102;23;19974;-88
2022/03/18 14:52:18;;;;;;;;;;;16.10;98.30;;;;;;6132376;23;19921;-85
2022/03/18 14:57:31;;;;;;;;;;;16.20;98.50;;;;;;6133901;23;19927;-86
2022/03/18 15:00:00;;;;;;;;;;;16.20;99.90;;;;;;6130945;23;19921;-88
2022/03/18 15:02:28;;;;;;;;;;;16.20;98.40;;;;;;6128008;23;19921;-86
2022/03/18 15:04:55;;;;;;;;;;;17.10;98.50;;;;;;6129157;23;19980;-88